createdAt,value
2024-03-02T09:20:03.695Z,12.94
2024-03-02T09:22:34.693Z,13.13
2024-03-02T09:25:04.985Z,13.22
2024-03-02T09:27:32.824Z,12.79
2024-03-02T09:30:00.251Z,12.54
2024-03-02T09:35:34.003Z,13.47
2024-03-02T09:41:20.660Z,13.46
2024-03-02T09:43:50.652Z,11.68
2024-03-02T09:46:18.762Z,11.87
2024-03-02T09:48:46.566Z,12.86
2024-03-02T09:51:18.474Z,13.89
2024-03-02T09:59:15.517Z,13.89
2024-03-02T10:26:19.016Z,13.25
2024-03-02T10:28:48.341Z,13.27
2024-03-02T10:31:15.766Z,13.20
2024-03-02T10:33:43.454Z,13.76
2024-03-02T10:36:11.173Z,13.88
2024-03-02T10:38:38.716Z,13.40
2024-03-02T10:41:10.038Z,14.12
2024-03-02T10:43:37.722Z,13.73
2024-03-02T10:46:05.286Z,14.39
2024-03-02T10:48:42.619Z,13.65
2024-03-02T10:51:16.691Z,13.54
2024-03-02T10:53:48.439Z,13.95
2024-03-02T10:56:31.406Z,13.95
2024-03-02T10:59:04.957Z,14.09
2024-03-02T11:01:34.162Z,14.67
2024-03-02T11:15:20.016Z,15.37
2024-03-02T11:17:49.093Z,15.11
2024-03-02T11:20:17.022Z,14.89
2024-03-02T11:22:44.668Z,14.94
2024-03-02T11:25:25.137Z,16.40
2024-03-02T11:28:03.490Z,14.64
2024-03-02T11:30:54.243Z,15.37
2024-03-02T11:33:26.557Z,15.35
2024-03-02T11:35:54.114Z,15.12
2024-03-02T11:38:21.624Z,14.78
2024-03-02T11:40:49.043Z,14.75
2024-03-02T11:43:16.313Z,14.51
2024-03-02T11:45:45.755Z,14.70
2024-03-02T11:48:16.602Z,15.85
2024-03-02T11:50:48.607Z,15.04
2024-03-02T11:53:16.346Z,15.47
2024-03-02T11:55:43.782Z,15.66
2024-03-02T11:58:11.233Z,14.80
2024-03-02T12:00:38.694Z,15.26
2024-03-02T12:03:07.226Z,14.73
2024-03-02T12:05:37.183Z,14.77
2024-03-02T12:08:05.870Z,14.91
2024-03-02T12:10:34.212Z,15.54
2024-03-02T12:13:03.240Z,16.02
2024-03-02T12:15:32.018Z,15.40
2024-03-02T12:18:02.084Z,14.99
2024-03-02T12:20:31.443Z,15.07
2024-03-02T12:23:01.379Z,14.92
2024-03-02T12:25:28.963Z,14.37
2024-03-02T12:27:57.640Z,14.95
2024-03-02T12:30:25.709Z,14.61
2024-03-02T12:32:53.047Z,14.53
2024-03-02T12:35:20.643Z,14.73
2024-03-02T12:37:49.272Z,14.92
2024-03-02T12:40:20.007Z,16.13
2024-03-02T12:42:48.949Z,14.72
2024-03-02T12:45:17.857Z,14.59
2024-03-02T12:47:46.368Z,14.52
2024-03-02T12:50:13.527Z,15.96
2024-03-02T12:52:40.834Z,14.57
2024-03-02T12:55:08.901Z,15.23
2024-03-02T12:57:38.657Z,14.19
2024-03-02T13:00:08.541Z,13.92
2024-03-02T13:02:37.434Z,14.27
2024-03-02T13:05:07.311Z,14.31
2024-03-02T13:07:35.577Z,14.61
2024-03-02T13:10:04.498Z,14.44
2024-03-02T13:12:32.261Z,15.31
2024-03-02T13:15:01.935Z,15.56
2024-03-02T13:17:32.469Z,16.61
2024-03-02T13:20:04.805Z,16.00
2024-03-02T13:22:32.379Z,15.76
2024-03-02T13:25:00.451Z,15.84
2024-03-02T13:27:28.384Z,15.36
2024-03-02T13:29:55.930Z,14.52
2024-03-02T13:32:24.909Z,14.88
2024-03-02T13:34:53.223Z,16.45
2024-03-02T13:37:22.297Z,15.12
2024-03-02T13:39:50.035Z,14.56
2024-03-02T13:42:18.097Z,14.68
2024-03-02T13:44:46.378Z,15.22
2024-03-02T13:47:13.812Z,14.85
2024-03-02T13:49:43.171Z,15.19
2024-03-02T13:52:10.950Z,14.70
2024-03-02T13:54:39.400Z,14.67
2024-03-02T13:57:06.802Z,16.32
2024-03-02T13:59:34.397Z,14.48
2024-03-02T14:02:02.821Z,15.06
2024-03-02T14:04:30.182Z,14.32
2024-03-02T14:06:59.032Z,15.32
2024-03-02T14:09:27.797Z,14.90
2024-03-02T14:11:55.672Z,16.42
2024-03-02T14:14:23.100Z,14.94
2024-03-02T14:16:50.552Z,16.10
2024-03-02T14:19:17.835Z,14.75
2024-03-02T14:21:45.116Z,15.12
2024-03-02T14:24:14.146Z,15.15
2024-03-02T14:26:41.500Z,15.34
2024-03-02T14:29:08.889Z,15.39
2024-03-02T14:31:36.327Z,16.25
2024-03-02T14:34:04.523Z,15.48
2024-03-02T14:36:32.087Z,15.08
2024-03-02T14:38:59.619Z,14.74
2024-03-02T14:41:28.703Z,14.93
2024-03-02T14:43:56.468Z,15.40
2024-03-02T14:46:25.100Z,15.43
2024-03-02T14:48:52.333Z,15.35
2024-03-02T14:51:19.689Z,15.42
2024-03-02T16:38:07.438Z,13.36
2024-03-02T16:40:34.847Z,13.16
2024-03-02T16:43:02.196Z,13.06
2024-03-02T16:45:29.694Z,13.21
2024-03-02T16:47:56.804Z,13.05
2024-03-02T16:50:24.056Z,12.88
2024-03-02T16:52:51.479Z,15.02
2024-03-02T16:55:20.439Z,13.24
2024-03-02T16:57:47.805Z,12.97
2024-03-02T17:00:16.149Z,13.20
2024-03-02T17:02:43.345Z,13.21
2024-03-02T17:05:10.654Z,13.35
2024-03-02T17:07:38.416Z,13.58
2024-03-02T17:10:06.509Z,13.52
2024-03-02T17:12:35.275Z,13.96
2024-03-02T17:15:02.607Z,14.50
2024-03-02T17:17:29.801Z,14.07
2024-03-02T17:19:57.018Z,14.04
2024-03-02T17:22:24.429Z,13.69
2024-03-02T17:24:51.690Z,15.53
2024-03-02T17:27:18.968Z,14.19
2024-03-02T17:29:47.790Z,13.68
2024-03-02T17:32:15.219Z,13.92
2024-03-02T17:34:42.847Z,14.39
2024-03-02T17:37:10.660Z,14.37
2024-03-02T17:39:38.221Z,13.33
2024-03-02T17:42:06.074Z,13.23
2024-03-02T17:44:33.574Z,13.20
2024-03-02T17:47:02.946Z,13.05
2024-03-02T17:49:31.530Z,13.06
2024-03-02T17:51:59.248Z,12.87
2024-03-02T17:54:26.611Z,12.82
2024-03-02T18:22:37.372Z,13.45
2024-03-02T18:25:05.782Z,13.97
2024-03-02T18:27:42.405Z,14.65
2024-03-02T18:30:10.756Z,14.74
2024-03-02T18:32:38.851Z,13.40
2024-03-02T18:35:07.923Z,13.76
2024-03-02T18:37:38.037Z,13.71
2024-03-02T18:40:07.029Z,13.24
2024-03-02T18:42:34.562Z,14.43
2024-03-02T18:45:02.678Z,13.96
2024-03-02T18:47:30.489Z,13.65
2024-03-02T18:50:00.191Z,13.41
2024-03-02T18:52:27.496Z,13.32
2024-03-02T18:54:58.335Z,13.47
2024-03-02T18:57:26.031Z,13.16
2024-03-02T18:59:53.214Z,13.09
2024-03-02T19:02:22.647Z,13.79
2024-03-02T19:04:50.019Z,12.83
2024-03-02T19:07:17.435Z,12.92
2024-03-02T19:09:45.081Z,12.83
2024-03-02T19:12:14.076Z,14.68
2024-03-02T19:14:41.321Z,14.07
2024-03-02T19:17:09.332Z,13.32
2024-03-02T19:19:36.722Z,14.57
2024-03-02T19:22:08.379Z,13.10
2024-03-02T19:24:39.588Z,13.08
2024-03-02T19:27:07.016Z,13.29
2024-03-02T19:29:36.560Z,13.45
2024-03-02T19:32:08.376Z,13.98
2024-03-02T19:34:39.539Z,12.99
2024-03-02T19:37:07.385Z,14.09
2024-03-02T21:10:20.839Z,12.39
2024-03-02T21:12:48.770Z,12.96
2024-03-02T21:15:16.632Z,12.62
2024-03-02T21:17:44.298Z,11.95
2024-03-02T21:20:12.254Z,12.77
2024-03-02T21:22:40.165Z,13.14
2024-03-02T21:25:09.340Z,12.39
2024-03-02T21:27:38.262Z,12.39
2024-03-02T21:30:06.808Z,12.04
2024-03-02T21:32:34.389Z,11.78
2024-03-02T21:35:01.912Z,12.05
2024-03-02T21:37:29.342Z,12.13
2024-03-02T21:39:57.242Z,12.09
2024-03-02T21:42:25.152Z,12.19
2024-03-02T21:44:53.955Z,12.12
2024-03-02T21:47:21.691Z,12.03
2024-03-02T21:49:49.201Z,12.09
2024-03-02T21:52:17.302Z,12.91
2024-03-02T21:54:46.194Z,12.69
2024-03-02T21:57:14.007Z,12.02
2024-03-02T21:59:42.923Z,12.35
2024-03-02T22:02:11.751Z,12.77
2024-03-02T22:04:44.039Z,13.04
2024-03-02T22:07:11.532Z,12.86
2024-03-02T22:09:38.826Z,12.30
2024-03-02T22:12:08.971Z,12.86
2024-03-02T22:14:37.170Z,11.71
2024-03-02T22:17:04.762Z,12.73
2024-03-02T22:19:33.423Z,12.97
2024-03-02T22:22:01.197Z,13.48
2024-03-02T22:24:28.942Z,12.87
2024-03-02T22:26:56.730Z,12.80
2024-03-02T22:29:24.358Z,12.72
2024-03-02T22:31:54.574Z,12.96
2024-03-02T22:34:21.872Z,12.83
2024-03-02T22:36:50.569Z,12.81
2024-03-02T22:39:18.173Z,11.83
2024-03-02T22:41:45.473Z,11.50
2024-03-02T22:44:13.330Z,11.54
2024-03-02T22:46:40.579Z,11.44
2024-03-02T22:49:08.225Z,12.17
2024-03-02T22:51:35.448Z,11.65
2024-03-02T22:54:04.468Z,12.70
2024-03-02T22:56:33.660Z,11.71
2024-03-02T22:59:01.177Z,11.86
2024-03-02T23:01:28.894Z,12.12
2024-03-02T23:03:56.490Z,12.63
2024-03-02T23:06:23.810Z,12.55
2024-03-02T23:08:51.100Z,12.09
2024-03-02T23:11:23.015Z,12.29
2024-03-02T23:13:50.809Z,12.14
2024-03-02T23:16:18.162Z,11.99
2024-03-02T23:18:46.683Z,11.96
2024-03-02T23:21:13.805Z,11.82
2024-03-02T23:23:41.122Z,11.78
2024-03-02T23:26:08.257Z,11.64
2024-03-02T23:28:36.937Z,11.96
2024-03-02T23:31:04.662Z,12.06
2024-03-02T23:33:32.753Z,12.36
2024-03-02T23:36:00.229Z,13.40
2024-03-02T23:38:27.716Z,13.97
2024-03-02T23:40:55.252Z,13.47
2024-03-02T23:43:22.909Z,13.56
